Flight Track Log - Related Links

Times and Time Zones

All times are in EDT time to prevent confusion due to time zone crossing. See the SWA1802 flight status page for this flight to view local times or setup timezone preferences in your user account.

Time Position Orientation Groundspeed Altitude Reporting Facility
EDT Latitude Longitude Course Direction KTS MPH feet Rate Location/Type
Thu 07:15:47 PM 41.8010 -87.7750 301° West 163 188 1,800  Level FlightAware ADS-B
Thu 07:15:53 PM 41.8030 -87.7810 294° West 170 196 1,900 1,000 Climbing FlightAware ADS-B
Thu 07:15:59 PM 41.8040 -87.7880 281° West 178 205 2,000 429 Climbing FlightAware ADS-B
Thu 07:16:07 PM 41.8030 -87.7970 262° West 197 227 2,000 750 Level FlightAware ADS-B
Thu 07:16:15 PM 41.8010 -87.8070 255° West 214 246 2,200 2,143 Climbing FlightAware ADS-B
Thu 07:16:35 PM 41.7920 -87.8310 243° Southwest 222 255 3,000 2,333 Climbing FlightAware ADS-B
Thu 07:16:51 PM 41.7840 -87.8500 241° Southwest 231 266 3,600 1,765 Climbing FlightAware ADS-B
Thu 07:17:09 PM 41.7770 -87.8750 249° West 237 273 4,000 857 Climbing FlightAware ADS-B
Thu 07:17:19 PM 41.7760 -87.8900 265° West 248 285 4,000  Level FlightAware ADS-B
Thu 07:17:37 PM 41.7740 -87.9190 265° West 258 297 4,000  Level FlightAware ADS-B
Thu 07:17:59 PM 41.7720 -87.9550 266° West 259 298 4,000  Level FlightAware ADS-B
Thu 07:18:20 PM 41.7710 -87.9860 268° West 257 296 4,000  Level FlightAware ADS-B
Thu 07:18:44 PM 41.7680 -88.0250 264° West 256 295 4,000  Level FlightAware ADS-B
Thu 07:19:04 PM 41.7670 -88.0570 268° West 260 299 4,000  Level FlightAware ADS-B
Thu 07:19:24 PM 41.7650 -88.0900 265° West 258 297 4,000 300 Level FlightAware ADS-B
Thu 07:19:44 PM 41.7690 -88.1210 280° West 260 299 4,200 1,161 Climbing FlightAware ADS-B
Thu 07:19:55 PM 41.7730 -88.1370 289° West 260 299 4,600 2,647 Climbing FlightAware ADS-B
Thu 07:20:18 PM 41.7800 -88.1720 285° West 260 299 5,700 1,867 Climbing FlightAware ADS-B
Thu 07:20:40 PM 41.7870 -88.2060 285° West 262 302 6,000 977 Climbing FlightAware ADS-B
Thu 07:21:01 PM 41.7940 -88.2420 285° West 262 302 6,400 2,488 Climbing FlightAware ADS-B
Thu 07:21:21 PM 41.7990 -88.2710 283° West 249 287 7,700 3,409 Climbing FlightAware ADS-B
Thu 07:21:45 PM 41.8050 -88.3080 282° West 253 291 8,900 2,824 Climbing FlightAware ADS-B
Thu 07:21:55 PM 41.8080 -88.3240 284° West 256 295 9,300 2,500 Climbing FlightAware ADS-B
Thu 07:22:09 PM 41.8110 -88.3450 281° West 264 304 9,900 2,368 Climbing FlightAware ADS-B
Thu 07:22:33 PM 41.8090 -88.3830 266° West 278 320 10,800 1,600 Climbing FlightAware ADS-B
Thu 07:23:09 PM 41.7980 -88.4480 257° West 325 374 11,500 1,250 Climbing FlightAware ADS-B
Thu 07:23:45 PM 41.7820 -88.5230 254° West 357 411 12,300 2,000 Climbing FlightAware ADS-B
Thu 07:24:21 PM 41.7660 -88.6000 254° West 362 417 13,900 2,507 Climbing FlightAware ADS-B
Thu 07:24:52 PM 41.7510 -88.6680 254° West 370 426 15,100 2,382 Climbing FlightAware ADS-B
Thu 07:25:29 PM 41.7340 -88.7530 255° West 376 433 16,600 2,301 Climbing FlightAware ADS-B
Thu 07:26:05 PM 41.7170 -88.8320 254° West 381 438 17,900 2,167 Climbing FlightAware ADS-B
Thu 07:26:41 PM 41.7000 -88.9130 254° West 387 445 19,200 2,029 Climbing FlightAware ADS-B
Thu 07:27:13 PM 41.6840 -88.9870 254° West 394 453 20,200 1,765 Climbing FlightAware ADS-B
Thu 07:27:49 PM 41.6660 -89.0730 254° West 402 463 21,200 1,775 Climbing FlightAware ADS-B
Thu 07:28:24 PM 41.6480 -89.1580 254° West 404 465 22,300 1,890 Climbing FlightAware ADS-B
Thu 07:29:02 PM 41.6290 -89.2480 254° West 405 466 23,500 1,737 Climbing FlightAware ADS-B
Thu 07:29:40 PM 41.6090 -89.3400 254° West 410 472 24,500 1,440 Climbing FlightAware ADS-B
Thu 07:30:17 PM 41.5960 -89.4340 260° West 413 475 25,300 1,315 Climbing FlightAware ADS-B
Thu 07:30:53 PM 41.5840 -89.5270 260° West 419 482 26,100 1,130 Climbing FlightAware ADS-B
Thu 07:31:26 PM 41.5730 -89.6110 260° West 424 488 26,600 971 Climbing FlightAware ADS-B
Thu 07:32:01 PM 41.5620 -89.7020 261° West 432 497 27,200 1,075 Climbing FlightAware ADS-B
Thu 07:32:33 PM 41.5500 -89.7870 259° West 434 499 27,800 1,304 Climbing FlightAware ADS-B
Thu 07:33:10 PM 41.5390 -89.8740 260° West 432 497 28,700 1,583 Climbing FlightAware ADS-B
Thu 07:33:45 PM 41.5250 -89.9760 260° West 425 489 29,700 2,113 Climbing FlightAware ADS-B
Thu 07:34:21 PM 41.5130 -90.0650 260° West 407 468 31,200 2,206 Climbing FlightAware ADS-B
Thu 07:34:53 PM 41.5030 -90.1420 260° West 394 453 32,200 1,565 Climbing FlightAware ADS-B
Thu 07:35:30 PM 41.4910 -90.2300 260° West 391 450 33,000 1,167 Climbing FlightAware ADS-B
Thu 07:36:05 PM 41.4800 -90.3150 260° West 391 450 33,600 845 Climbing FlightAware ADS-B
Thu 07:36:41 PM 41.4680 -90.3990 259° West 392 451 34,000 329 Climbing FlightAware ADS-B
Thu 07:37:18 PM 41.4560 -90.4860 260° West 391 450 34,000  Level FlightAware ADS-B
Thu 07:37:49 PM 41.4460 -90.5590 260° West 390 449 34,000  Level FlightAware ADS-B
Thu 07:38:25 PM 41.4340 -90.6450 259° West 388 447 34,000  Level FlightAware ADS-B
Thu 07:39:02 PM 41.4230 -90.7270 260° West 388 447 34,000  Level FlightAware ADS-B
Thu 07:39:37 PM 41.4110 -90.8120 259° West 389 448 34,000  Level FlightAware ADS-B
Thu 07:40:07 PM 41.4010 -90.8840 260° West 392 451 34,000  Level FlightAware ADS-B
Thu 07:40:47 PM 41.3870 -90.9830 259° West 401 461 34,000  Level FlightAware ADS-B
Thu 07:41:22 PM 41.3750 -91.0660 259° West 401 461 34,000  Level FlightAware ADS-B
Thu 07:41:57 PM 41.3630 -91.1500 259° West 399 459 34,000  Level FlightAware ADS-B
Thu 07:42:33 PM 41.3500 -91.2340 258° West 399 459 34,000  Level FlightAware ADS-B
Thu 07:43:05 PM 41.3390 -91.3140 260° West 398 458 34,000  Level FlightAware ADS-B
Thu 07:43:39 PM 41.3280 -91.3910 259° West 397 457 34,000  Level FlightAware ADS-B
Thu 07:44:14 PM 41.3150 -91.4790 259° West 395 455 34,000  Level FlightAware ADS-B
Thu 07:44:48 PM 41.3030 -91.5570 258° West 394 453 34,000  Level FlightAware ADS-B
Thu 07:45:28 PM 41.2890 -91.6510 259° West 394 453 34,000  Level FlightAware ADS-B
Thu 07:46:03 PM 41.2770 -91.7360 259° West 396 456 34,000  Level FlightAware ADS-B
Thu 07:46:35 PM 41.2650 -91.8120 258° West 399 459 34,000  Level FlightAware ADS-B
Thu 07:47:19 PM 41.2490 -91.9200 259° West 402 463 34,000  Level FlightAware ADS-B
Thu 07:47:51 PM 41.2380 -91.9950 259° West 403 464 34,000  Level FlightAware ADS-B
Thu 07:48:35 PM 41.2210 -92.1040 258° West 403 464 34,000  Level FlightAware ADS-B
Thu 07:49:09 PM 41.2080 -92.1880 258° West 403 464 34,000  Level FlightAware ADS-B
Thu 07:49:43 PM 41.1970 -92.2580 258° West 403 464 34,000  Level FlightAware ADS-B
Thu 07:50:23 PM 41.1810 -92.3610 258° West 402 463 34,000  Level FlightAware ADS-B
Thu 07:50:53 PM 41.1690 -92.4370 258° West 402 463 34,000  Level FlightAware ADS-B
Thu 07:51:29 PM 41.1560 -92.5240 259° West 401 461 34,000  Level FlightAware ADS-B
Thu 07:52:04 PM 41.1430 -92.6080 258° West 400 460 34,000  Level FlightAware ADS-B
Thu 07:52:39 PM 41.1290 -92.6940 258° West 399 459 34,000  Level FlightAware ADS-B
Thu 07:53:12 PM 41.1170 -92.7710 258° West 399 459 34,000  Level FlightAware ADS-B
Thu 07:53:53 PM 41.1010 -92.8690 258° West 402 463 34,000  Level FlightAware ADS-B
Thu 07:54:25 PM 41.0890 -92.9470 258° West 405 466 34,000  Level FlightAware ADS-B
Thu 07:55:01 PM 41.0740 -93.0360 257° West 405 466 34,000  Level FlightAware ADS-B
Thu 07:55:35 PM 41.0610 -93.1180 258° West 406 467 34,000  Level FlightAware ADS-B
Thu 07:56:13 PM 41.0460 -93.2070 257° West 408 470 34,000  Level FlightAware ADS-B
Thu 07:56:53 PM 41.0300 -93.3060 258° West 408 470 34,000  Level FlightAware ADS-B
Thu 07:57:23 PM 41.0180 -93.3770 257° West 409 471 34,000  Level FlightAware ADS-B
Thu 07:57:43 PM 41.1220 -92.7410 78° East 34,000  Level FlightAware ADS-B
Thu 07:58:03 PM 41.0020 -93.4780 258° West 407 468 34,000  Level FlightAware ADS-B
Thu 07:58:45 PM 40.9870 -93.5610 257° West 407 468 34,000  Level FlightAware ADS-B
Thu 07:59:27 PM 40.9690 -93.6700 258° West 408 470 34,000  Level FlightAware ADS-B
Thu 08:00:01 PM 40.9570 -93.7410 257° West 408 470 34,000  Level FlightAware ADS-B
Thu 08:00:47 PM 40.9400 -93.8360 257° West 408 470 34,000  Level FlightAware ADS-B
Thu 08:01:24 PM 40.9270 -93.9120 257° West 408 470 34,000  Level FlightAware ADS-B
Thu 08:02:03 PM 40.9030 -94.0660 258° West 417 480 34,000  Level FlightAware ADS-B
Thu 08:02:37 PM 40.8880 -94.1530 257° West 427 491 34,000  Level FlightAware ADS-B
Thu 08:03:09 PM 40.8680 -94.2330 252° West 437 503 34,000  Level FlightAware ADS-B
Thu 08:03:45 PM 40.8340 -94.3180 242° Southwest 441 507 34,000  Level FlightAware ADS-B
Thu 08:04:22 PM 40.7990 -94.4040 242° Southwest 442 509 34,000  Level FlightAware ADS-B
Thu 08:04:55 PM 40.7700 -94.4750 242° Southwest 441 507 34,000  Level FlightAware ADS-B
Thu 08:05:29 PM 40.7350 -94.5620 242° Southwest 443 510 34,000  Level FlightAware ADS-B
Thu 08:06:06 PM 40.7000 -94.6500 242° Southwest 441 507 34,000  Level FlightAware ADS-B
Thu 08:06:37 PM 40.6710 -94.7250 243° Southwest 442 509 34,000  Level FlightAware ADS-B
Thu 08:07:15 PM 40.6350 -94.8180 243° Southwest 440 506 34,000  Level FlightAware ADS-B
Thu 08:07:52 PM 40.6010 -94.9050 243° Southwest 437 503 34,000  Level FlightAware ADS-B
Thu 08:08:22 PM 40.5730 -94.9770 243° Southwest 436 502 34,000  Level FlightAware ADS-B
Thu 08:09:01 PM 40.5380 -95.0700 244° Southwest 437 503 34,000  Level FlightAware ADS-B
Thu 08:09:36 PM 40.5070 -95.1530 244° Southwest 432 497 34,000  Level FlightAware ADS-B
Thu 08:10:13 PM 40.4870 -95.2450 254° West 426 490 34,000  Level FlightAware ADS-B
Thu 08:10:46 PM 40.4730 -95.3270 257° West 425 489 34,000  Level FlightAware ADS-B
Thu 08:11:18 PM 40.4590 -95.4080 257° West 422 486 34,000  Level FlightAware ADS-B
Thu 08:11:55 PM 40.4430 -95.5010 257° West 422 486 34,000  Level FlightAware ADS-B
Thu 08:12:31 PM 40.4280 -95.5900 258° West 423 487 34,000  Level FlightAware ADS-B
Thu 08:13:02 PM 40.4140 -95.6660 256° West 422 486 34,000  Level FlightAware ADS-B
Thu 08:13:42 PM 40.3960 -95.7660 257° West 423 487 34,000  Level FlightAware ADS-B
Thu 08:14:17 PM 40.3810 -95.8530 257° West 423 487 34,000  Level FlightAware ADS-B
Thu 08:14:50 PM 40.3660 -95.9350 257° West 422 486 34,000  Level FlightAware ADS-B
Thu 08:15:26 PM 40.3500 -96.0240 257° West 418 481 34,000  Level FlightAware ADS-B
Thu 08:16:03 PM 40.3340 -96.1140 257° West 415 478 34,000  Level FlightAware ADS-B
Thu 08:16:33 PM 40.3200 -96.1880 256° West 413 475 34,000  Level FlightAware ADS-B
Thu 08:17:10 PM 40.3040 -96.2780 257° West 410 472 34,000  Level FlightAware ADS-B
Thu 08:17:47 PM 40.2880 -96.3670 257° West 407 468 34,000  Level FlightAware ADS-B
Thu 08:18:18 PM 40.2740 -96.4400 256° West 403 464 34,000  Level FlightAware ADS-B
Thu 08:18:56 PM 40.2580 -96.5300 257° West 401 461 34,000  Level FlightAware ADS-B
Thu 08:19:31 PM 40.2420 -96.6140 256° West 400 460 34,000  Level FlightAware ADS-B
Thu 08:19:55 PM 40.2320 -96.6690 257° West 399 459 34,000  Level FlightAware ADS-B
Thu 08:20:30 PM 40.2170 -96.7500 256° West 398 458 34,000  Level FlightAware ADS-B
Thu 08:21:11 PM 40.2010 -96.8460 258° West 396 456 34,000  Level FlightAware ADS-B
Thu 08:21:44 PM 40.1900 -96.9150 258° West 395 455 34,000  Level FlightAware ADS-B
Thu 08:22:20 PM 40.2100 -96.7990 77° East 397 457 34,000  Level FlightAware ADS-B
Thu 08:22:57 PM 40.1990 -96.8730 259° West 397 457 34,000  Level FlightAware ADS-B
Thu 08:23:22 PM 40.1680 -97.1480 262° West 385 443 34,000  Level FlightAware ADS-B
Thu 08:24:05 PM 40.1590 -97.2510 264° West 388 447 34,000  Level FlightAware ADS-B
Thu 08:24:38 PM 40.1530 -97.3260 264° West 388 447 34,000  Level FlightAware ADS-B
Thu 08:25:07 PM 40.1470 -97.3880 263° West 387 445 34,000  Level FlightAware ADS-B
Thu 08:25:51 PM 40.1420 -97.4530 264° West 388 447 34,000  Level FlightAware ADS-B
Thu 08:26:28 PM 40.1360 -97.5270 264° West 388 447 34,000  Level FlightAware ADS-B
Thu 08:27:07 PM 40.1270 -97.6640 265° West 34,000  Level FlightAware ADS-B
Thu 08:27:57 PM 40.1190 -97.7850 265° West 353 406 34,000 162 Level FlightAware ADS-B
Thu 08:28:58 PM 40.1120 -97.9330 267° West 395 455 34,300 240 Climbing FlightAware ADS-B
Thu 08:29:37 PM 40.1080 -98.0170 266° West 396 456 34,400 701 Climbing FlightAware ADS-B
Thu 08:30:15 PM 40.1040 -98.1180 267° West 399 459 35,200 789 Climbing FlightAware ADS-B
Thu 08:30:53 PM 40.0950 -98.2000 262° West 402 463 35,400 162 Climbing FlightAware ADS-B
Thu 08:31:29 PM 40.0860 -98.2730 261° West 402 463 35,400  Level FlightAware ADS-B
Thu 08:32:05 PM 40.0770 -98.3470 261° West 402 463 35,400  Level FlightAware ADS-B
Thu 08:32:40 PM 40.0690 -98.4180 262° West 402 463 35,400  Level FlightAware ADS-B
Thu 08:33:16 PM 40.0600 -98.4920 261° West 402 463 35,400  Level FlightAware ADS-B
Thu 08:33:52 PM 40.0510 -98.5650 261° West 402 463 35,400  Level FlightAware ADS-B
Thu 08:34:28 PM 40.0420 -98.6390 261° West 402 463 35,400  Level FlightAware ADS-B
Thu 08:35:04 PM 40.0330 -98.7120 261° West 402 463 35,400  Level FlightAware ADS-B
Thu 08:35:41 PM 40.0240 -98.7880 261° West 402 463 35,400  Level FlightAware ADS-B
Thu 08:36:17 PM 40.0150 -98.8610 261° West 402 463 35,400  Level FlightAware ADS-B
Thu 08:36:53 PM 40.0060 -98.9340 261° West 402 463 35,400  Level FlightAware ADS-B
Thu 08:37:29 PM 39.9970 -99.0080 261° West 402 463 35,400  Level FlightAware ADS-B
Thu 08:38:05 PM 39.9880 -99.0810 261° West 402 463 35,400  Level FlightAware ADS-B
Thu 08:38:42 PM 39.9790 -99.1560 261° West 402 463 35,400  Level FlightAware ADS-B
Thu 08:39:18 PM 39.9700 -99.2300 261° West 402 463 35,400  Level FlightAware ADS-B
Thu 08:39:55 PM 39.9610 -99.3050 261° West 402 463 35,400 500 Level FlightAware ADS-B
Thu 08:40:30 PM 39.8911 -99.5511 261° West 391 450 36,000 371 Climbing Minneapolis Center
Thu 08:41:32 PM 39.8772 -99.6906 263° West 389 448 36,000  Level Minneapolis Center
Thu 08:42:34 PM 39.8653 -99.8297 264° West 388 447 36,000  Level Minneapolis Center
Thu 08:43:37 PM 39.8547 -99.9700 264° West 388 447 36,000  Level Minneapolis Center
Thu 08:44:39 PM 39.8300 -100.1094 257° West 393 452 36,000  Level Minneapolis Center
Thu 08:45:41 PM 39.7886 -100.2714 252° West 394 453 36,000  Level Minneapolis Center
Thu 08:47:11 PM 39.7422 -100.4603 252° West 394 453 36,000  Level Denver Center
Thu 08:48:24 PM 39.7053 -100.6103 252° West 391 450 36,000  Level Denver Center
Thu 08:49:27 PM 39.6672 -100.7631 252° West 396 456 36,000  Level Denver Center
Thu 08:50:29 PM 39.6289 -100.9189 252° West 403 464 36,000  Level Denver Center
Thu 08:51:31 PM 39.5967 -101.0508 252° West 401 461 36,000  Level Denver Center
Thu 08:52:32 PM 39.5581 -101.2019 252° West 397 457 36,000  Level Denver Center
Thu 08:53:34 PM 39.5253 -101.3342 252° West 401 461 36,000  Level Denver Center
Thu 08:59:03 PM 39.3270 -102.1070 252° West 409 471 36,000  Level FlightAware ADS-B
Thu 08:59:36 PM 39.3090 -102.1740 251° West 409 471 36,000  Level FlightAware ADS-B
Thu 09:00:12 PM 39.2900 -102.2440 251° West 409 471 36,000  Level FlightAware ADS-B
Thu 09:00:45 PM 39.2650 -102.3420 252° West 408 470 36,000  Level FlightAware ADS-B
Thu 09:01:23 PM 39.2420 -102.4300 251° West 408 470 36,000  Level FlightAware ADS-B
Thu 09:02:16 PM 39.2120 -102.5420 251° West 409 471 36,000  Level FlightAware ADS-B
Thu 09:02:51 PM 39.1890 -102.6290 251° West 408 470 36,000  Level FlightAware ADS-B
Thu 09:03:23 PM 39.1690 -102.7070 252° West 410 472 36,000  Level FlightAware ADS-B
Thu 09:04:01 PM 39.1460 -102.7910 251° West 411 473 36,000  Level FlightAware ADS-B
Thu 09:04:37 PM 39.1230 -102.8780 251° West 414 476 36,000  Level FlightAware ADS-B
Thu 09:05:11 PM 39.1010 -102.9580 251° West 416 479 36,000  Level FlightAware ADS-B
Thu 09:05:46 PM 39.0800 -103.0380 251° West 416 479 36,000  Level FlightAware ADS-B
Thu 09:06:21 PM 39.0570 -103.1200 250° West 418 481 36,000  Level FlightAware ADS-B
Thu 09:06:57 PM 39.0350 -103.2020 251° West 418 481 36,000  Level FlightAware ADS-B
Thu 09:07:32 PM 39.0130 -103.2850 251° West 418 481 36,000  Level FlightAware ADS-B
Thu 09:08:07 PM 38.9900 -103.3680 250° West 420 483 36,000  Level FlightAware ADS-B
Thu 09:08:43 PM 38.9660 -103.4530 250° West 419 482 36,000  Level FlightAware ADS-B
Thu 09:09:15 PM 38.9460 -103.5280 251° West 419 482 36,000  Level FlightAware ADS-B
Thu 09:09:51 PM 38.9230 -103.6120 251° West 416 479 36,000  Level FlightAware ADS-B
Thu 09:10:27 PM 38.8990 -103.6960 250° West 414 476 36,000  Level FlightAware ADS-B
Thu 09:10:59 PM 38.8780 -103.7710 250° West 413 475 36,000  Level FlightAware ADS-B
Thu 09:11:35 PM 38.8560 -103.8510 251° West 412 474 36,000  Level FlightAware ADS-B
Thu 09:12:13 PM 38.8320 -103.9370 250° West 410 472 36,000  Level FlightAware ADS-B
Thu 09:12:45 PM 38.8110 -104.0120 250° West 408 470 36,000  Level FlightAware ADS-B
Thu 09:13:21 PM 38.7880 -104.0940 250° West 410 472 36,000  Level FlightAware ADS-B
Thu 09:13:57 PM 38.7650 -104.1760 250° West 411 473 36,000  Level FlightAware ADS-B
Thu 09:14:34 PM 38.7420 -104.2560 250° West 410 472 36,000  Level FlightAware ADS-B
Thu 09:15:07 PM 38.7190 -104.3360 250° West 408 470 36,000  Level FlightAware ADS-B
Thu 09:15:43 PM 38.6960 -104.4170 250° West 406 467 36,000  Level FlightAware ADS-B
Thu 09:16:15 PM 38.6750 -104.4910 250° West 405 466 36,000  Level FlightAware ADS-B
Thu 09:16:51 PM 38.6520 -104.5710 250° West 407 468 36,000  Level FlightAware ADS-B
Thu 09:17:25 PM 38.6300 -104.6470 250° West 409 471 36,000  Level FlightAware ADS-B
Thu 09:18:03 PM 38.6050 -104.7340 250° West 408 470 36,000  Level FlightAware ADS-B
Thu 09:18:34 PM 38.5850 -104.8020 249° West 408 470 36,000  Level FlightAware ADS-B
Thu 09:19:15 PM 38.5580 -104.8970 250° West 413 475 36,000  Level FlightAware ADS-B
Thu 09:19:55 PM 38.5320 -104.9870 250° West 416 479 36,000  Level FlightAware ADS-B
Thu 09:20:27 PM 38.5100 -105.0620 249° West 417 480 36,000  Level FlightAware ADS-B
Thu 09:21:05 PM 38.4840 -105.1490 249° West 416 479 36,000  Level FlightAware ADS-B
Thu 09:21:42 PM 38.4640 -105.2330 253° West 412 474 36,000  Level FlightAware ADS-B
Thu 09:22:15 PM 38.4480 -105.3130 256° West 412 474 36,000  Level FlightAware ADS-B
Thu 09:22:57 PM 38.4290 -105.4090 256° West 411 473 36,000  Level FlightAware ADS-B
Thu 09:23:50 PM 38.4070 -105.5270 257° West 410 472 36,000  Level FlightAware ADS-B
Thu 09:24:26 PM 38.3910 -105.6120 257° West 408 470 36,000  Level FlightAware ADS-B
Thu 09:25:03 PM 38.3750 -105.6950 256° West 408 470 36,000  Level FlightAware ADS-B
Thu 09:25:31 PM 38.3630 -105.7620 257° West 409 471 36,000  Level FlightAware ADS-B
Thu 09:26:13 PM 38.3440 -105.8690 257° West 410 472 36,000  Level FlightAware ADS-B
Thu 09:26:48 PM 38.3290 -105.9500 257° West 412 474 36,000  Level FlightAware ADS-B
Thu 09:27:30 PM 38.3130 -106.0430 258° West 411 473 36,000  Level FlightAware ADS-B
Thu 09:28:05 PM 38.2980 -106.1340 258° West 411 473 36,000  Level FlightAware ADS-B
Thu 09:28:35 PM 38.2860 -106.2030 258° West 412 474 36,000  Level FlightAware ADS-B
Thu 09:29:20 PM 38.2680 -106.3100 258° West 412 474 36,000  Level FlightAware ADS-B
Thu 09:29:57 PM 38.2530 -106.3980 258° West 413 475 36,000  Level FlightAware ADS-B
Thu 09:30:33 PM 38.2400 -106.4790 258° West 410 472 36,000  Level FlightAware ADS-B
Thu 09:31:08 PM 38.2160 -106.5600 249° West 409 471 36,000  Level FlightAware ADS-B
Thu 09:31:48 PM 38.1860 -106.6510 247° West 405 466 36,000  Level FlightAware ADS-B
Thu 09:32:23 PM 38.1610 -106.7270 247° West 404 465 36,000  Level FlightAware ADS-B
Thu 09:33:00 PM 38.1340 -106.8100 248° West 405 466 36,000  Level FlightAware ADS-B
Thu 09:33:35 PM 38.1100 -106.8830 247° West 405 466 36,000  Level FlightAware ADS-B
Thu 09:34:12 PM 38.0820 -106.9670 247° West 407 468 36,000  Level FlightAware ADS-B
Thu 09:34:46 PM 38.0590 -107.0360 247° West 408 470 36,000  Level FlightAware ADS-B
Thu 09:35:19 PM 38.0330 -107.1130 247° West 409 471 36,000  Level FlightAware ADS-B
Thu 09:35:55 PM 38.0060 -107.1930 247° West 410 472 36,000  Level FlightAware ADS-B
Thu 09:36:30 PM 37.9800 -107.2700 247° West 412 474 36,000  Level FlightAware ADS-B
Thu 09:37:07 PM 37.9520 -107.3510 246° West 414 476 36,000  Level FlightAware ADS-B
Thu 09:37:37 PM 37.9290 -107.4200 247° West 416 479 36,000  Level FlightAware ADS-B
Thu 09:38:15 PM 37.9010 -107.5020 247° West 417 480 36,000 500 Level FlightAware ADS-B
Thu 09:38:49 PM 37.8740 -107.5800 246° West 410 472 36,600 1,478 Climbing FlightAware ADS-B
Thu 09:39:24 PM 37.8490 -107.6540 247° West 392 451 37,700 1,183 Climbing FlightAware ADS-B
Thu 09:40:00 PM 37.8270 -107.7180 246° West 393 452 38,000 254 Climbing FlightAware ADS-B
Thu 09:40:35 PM 37.7980 -107.8030 247° West 399 459 38,000  Level FlightAware ADS-B
Thu 09:41:10 PM 37.7720 -107.8790 247° West 402 463 38,000  Level FlightAware ADS-B
Thu 09:41:50 PM 37.7420 -107.9660 246° West 403 464 38,000  Level FlightAware ADS-B
Thu 09:42:25 PM 37.7160 -108.0410 246° West 402 463 38,000  Level FlightAware ADS-B
Thu 09:43:00 PM 37.6930 -108.1080 247° West 401 461 38,000  Level FlightAware ADS-B
Thu 09:43:35 PM 37.6640 -108.1890 246° West 400 460 38,000  Level FlightAware ADS-B
Thu 09:44:11 PM 37.6370 -108.2660 246° West 400 460 38,000  Level FlightAware ADS-B
Thu 09:44:51 PM 37.6080 -108.3490 246° West 400 460 38,000  Level FlightAware ADS-B
Thu 09:45:28 PM 37.5800 -108.4310 247° West 403 464 38,000  Level FlightAware ADS-B
Thu 09:46:10 PM 37.5500 -108.5150 246° West 407 468 38,000  Level FlightAware ADS-B
Thu 09:46:48 PM 37.5250 -108.5850 246° West 407 468 38,000  Level FlightAware ADS-B
Thu 09:47:23 PM 37.5020 -108.6500 246° West 407 468 38,000  Level FlightAware ADS-B
Thu 09:47:47 PM 37.4870 -108.6940 247° West 407 468 38,000  Level FlightAware ADS-B
Thu 09:48:33 PM 37.4410 -108.8240 246° West 410 472 38,000  Level FlightAware ADS-B
Thu 09:49:11 PM 37.4100 -108.9080 245° Southwest 411 473 38,000  Level FlightAware ADS-B
Thu 09:50:07 PM 37.3700 -109.0200 246° West 410 472 38,000  Level FlightAware ADS-B
Thu 09:50:43 PM 37.3450 -109.0860 245° Southwest 410 472 38,000  Level FlightAware ADS-B
Thu 09:51:19 PM 37.3210 -109.1520 245° Southwest 410 472 38,000  Level FlightAware ADS-B
Thu 09:51:55 PM 37.2960 -109.2180 245° Southwest 410 472 38,000  Level FlightAware ADS-B
Thu 09:52:26 PM 37.3080 -109.3520 276° West 989 1138 38,000  Level FlightAware ADS-B
Thu 09:52:46 PM 37.2980 -109.4100 258° West 417 480 38,000  Level FlightAware ADS-B
Thu 09:53:23 PM 37.2840 -109.4900 258° West 414 476 38,000  Level FlightAware ADS-B
Thu 09:53:58 PM 37.2690 -109.5810 258° West 414 476 38,000  Level FlightAware ADS-B
Thu 09:54:32 PM 37.2560 -109.6610 258° West 413 475 38,000  Level FlightAware ADS-B
Thu 09:55:17 PM 37.2400 -109.7640 259° West 414 476 38,000  Level FlightAware ADS-B
Thu 09:55:59 PM 37.2230 -109.8580 257° West 412 474 38,000  Level FlightAware ADS-B
Thu 09:56:33 PM 37.2060 -109.9400 255° West 410 472 38,000  Level FlightAware ADS-B
Thu 09:57:08 PM 37.1900 -110.0180 256° West 410 472 38,000  Level FlightAware ADS-B
Thu 09:57:43 PM 37.1740 -110.0960 256° West 410 472 38,000  Level FlightAware ADS-B
Thu 09:58:20 PM 37.1590 -110.1680 255° West 410 472 38,000  Level FlightAware ADS-B
Thu 09:58:56 PM 37.1440 -110.2390 255° West 410 472 38,000  Level FlightAware ADS-B
Thu 09:59:32 PM 37.1290 -110.3090 255° West 410 472 38,000  Level FlightAware ADS-B
Thu 10:00:08 PM 37.1140 -110.3790 255° West 410 472 38,000  Level FlightAware ADS-B
Thu 10:00:44 PM 37.0990 -110.4490 255° West 410 472 38,000  Level FlightAware ADS-B
Thu 10:01:20 PM 37.0840 -110.5200 255° West 410 472 38,000  Level FlightAware ADS-B
Thu 10:01:56 PM 37.0680 -110.5900 254° West 410 472 38,000  Level FlightAware ADS-B
Thu 10:02:30 PM 37.0540 -110.6560 255° West 410 472 38,000  Level FlightAware ADS-B
Thu 10:03:05 PM 36.9850 -110.8360 244° Southwest 421 484 38,000  Level FlightAware ADS-B
Thu 10:03:37 PM 36.9630 -110.9090 249° West 420 483 38,000  Level FlightAware ADS-B
Thu 10:04:18 PM 36.9350 -111.0040 250° West 420 483 38,000  Level FlightAware ADS-B
Thu 10:04:54 PM 36.9120 -111.0830 250° West 418 481 38,000  Level FlightAware ADS-B
Thu 10:05:26 PM 36.8910 -111.1580 251° West 418 481 38,000  Level FlightAware ADS-B
Thu 10:06:02 PM 36.8670 -111.2390 250° West 419 482 38,000  Level FlightAware ADS-B
Thu 10:06:37 PM 36.8450 -111.3170 251° West 420 483 38,000  Level FlightAware ADS-B
Thu 10:07:14 PM 36.8190 -111.4030 249° West 420 483 38,000  Level FlightAware ADS-B
Thu 10:07:46 PM 36.7870 -111.4690 239° Southwest 417 480 38,000  Level FlightAware ADS-B
Thu 10:08:22 PM 36.7480 -111.5400 236° Southwest 416 479 38,000  Level FlightAware ADS-B
Thu 10:08:57 PM 36.7110 -111.6080 236° Southwest 416 479 38,000  Level FlightAware ADS-B
Thu 10:09:34 PM 36.6700 -111.6840 236° Southwest 416 479 38,000  Level FlightAware ADS-B
Thu 10:10:02 PM 36.6400 -111.7400 236° Southwest 416 479 38,000  Level FlightAware ADS-B
Thu 10:10:44 PM 36.5940 -111.8220 235° Southwest 415 478 38,000  Level FlightAware ADS-B
Thu 10:11:18 PM 36.5600 -111.8910 238° Southwest 418 481 38,000  Level FlightAware ADS-B
Thu 10:11:54 PM 36.5270 -111.9670 242° Southwest 415 478 38,000  Level FlightAware ADS-B
Thu 10:12:26 PM 36.4980 -112.0350 242° Southwest 417 480 38,000  Level FlightAware ADS-B
Thu 10:13:00 PM 36.4700 -112.0970 241° Southwest 416 479 38,000  Level FlightAware ADS-B
Thu 10:13:36 PM 36.4340 -112.1810 242° Southwest 417 480 38,000  Level FlightAware ADS-B
Thu 10:14:12 PM 36.4010 -112.2560 241° Southwest 417 480 38,000  Level FlightAware ADS-B
Thu 10:14:42 PM 36.3730 -112.3200 241° Southwest 417 480 38,000  Level FlightAware ADS-B
Thu 10:15:24 PM 36.3340 -112.4070 241° Southwest 417 480 38,000  Level FlightAware ADS-B
Thu 10:15:56 PM 36.3050 -112.4750 242° Southwest 417 480 38,000  Level FlightAware ADS-B
Thu 10:16:32 PM 36.2710 -112.5510 241° Southwest 416 479 38,000  Level FlightAware ADS-B
Thu 10:17:08 PM 36.2380 -112.6240 241° Southwest 416 479 38,000  Level FlightAware ADS-B
Thu 10:17:44 PM 36.2050 -112.6980 241° Southwest 416 479 38,000  Level FlightAware ADS-B
Thu 10:18:14 PM 36.1770 -112.7610 241° Southwest 417 480 38,000  Level FlightAware ADS-B
Thu 10:18:52 PM 36.1410 -112.8420 241° Southwest 417 480 38,000  Level FlightAware ADS-B
Thu 10:19:28 PM 36.1080 -112.9160 241° Southwest 418 481 38,000  Level FlightAware ADS-B
Thu 10:20:02 PM 36.0760 -112.9880 241° Southwest 418 481 38,000  Level FlightAware ADS-B
Thu 10:20:39 PM 36.0410 -113.0640 240° Southwest 418 481 38,000  Level FlightAware ADS-B
Thu 10:21:10 PM 36.0120 -113.1290 241° Southwest 419 482 38,000  Level FlightAware ADS-B
Thu 10:21:46 PM 35.9770 -113.2050 240° Southwest 419 482 38,000  Level FlightAware ADS-B
Thu 10:22:24 PM 35.9420 -113.2840 241° Southwest 419 482 38,000 -171 Level FlightAware ADS-B
Thu 10:22:56 PM 35.9110 -113.3520 241° Southwest 418 481 37,800 -706 Descending FlightAware ADS-B
Thu 10:23:32 PM 35.8780 -113.4250 241° Southwest 416 479 37,200 -1,000 Descending FlightAware ADS-B
Thu 10:24:08 PM 35.8440 -113.4990 240° Southwest 410 472 36,600 -971 Descending FlightAware ADS-B
Thu 10:24:40 PM 35.8140 -113.5650 241° Southwest 414 476 36,100 -529 Descending FlightAware ADS-B
Thu 10:25:16 PM 35.7810 -113.6380 241° Southwest 412 474 36,000 -85 Descending FlightAware ADS-B
Thu 10:25:51 PM 35.7480 -113.7090 240° Southwest 416 479 36,000  Level FlightAware ADS-B
Thu 10:26:28 PM 35.7130 -113.7870 241° Southwest 418 481 36,000  Level FlightAware ADS-B
Thu 10:27:00 PM 35.6820 -113.8530 240° Southwest 417 480 36,000  Level FlightAware ADS-B
Thu 10:27:36 PM 35.6480 -113.9260 240° Southwest 417 480 36,000  Level FlightAware ADS-B
Thu 10:28:12 PM 35.6150 -113.9980 241° Southwest 418 481 36,000  Level FlightAware ADS-B
Thu 10:28:44 PM 35.5840 -114.0640 240° Southwest 417 480 36,000  Level FlightAware ADS-B
Thu 10:29:18 PM 35.5510 -114.1350 240° Southwest 418 481 36,000  Level FlightAware ADS-B
Thu 10:29:58 PM 35.5130 -114.2180 241° Southwest 417 480 36,000  Level FlightAware ADS-B
Thu 10:30:34 PM 35.4780 -114.2930 240° Southwest 417 480 36,000  Level FlightAware ADS-B
Thu 10:31:07 PM 35.4470 -114.3600 240° Southwest 417 480 36,000  Level FlightAware ADS-B
Thu 10:31:42 PM 35.4140 -114.4290 240° Southwest 417 480 36,000  Level FlightAware ADS-B
Thu 10:32:16 PM 35.3810 -114.5000 240° Southwest 417 480 36,000  Level FlightAware ADS-B
Thu 10:32:53 PM 35.3470 -114.5730 240° Southwest 418 481 36,000  Level FlightAware ADS-B
Thu 10:33:42 PM 35.3010 -114.6700 240° Southwest 418 481 36,000  Level FlightAware ADS-B
Thu 10:34:16 PM 35.2640 -114.7470 240° Southwest 418 481 36,000  Level FlightAware ADS-B
Thu 10:34:50 PM 35.2310 -114.8180 240° Southwest 417 480 36,000  Level FlightAware ADS-B
Thu 10:35:26 PM 35.1970 -114.8900 240° Southwest 416 479 36,000  Level FlightAware ADS-B
Thu 10:36:02 PM 35.1620 -114.9620 239° Southwest 415 478 36,000  Level FlightAware ADS-B
Thu 10:36:38 PM 35.1270 -115.0370 240° Southwest 416 479 36,000  Level FlightAware ADS-B
Thu 10:37:10 PM 35.0950 -115.1030 239° Southwest 417 480 36,000  Level FlightAware ADS-B
Thu 10:37:46 PM 35.0610 -115.1750 240° Southwest 418 481 36,000  Level FlightAware ADS-B
Thu 10:38:20 PM 35.0280 -115.2430 239° Southwest 417 480 36,000  Level FlightAware ADS-B
Thu 10:38:54 PM 34.9980 -115.3060 240° Southwest 416 479 36,000  Level FlightAware ADS-B
Thu 10:39:30 PM 34.9600 -115.3840 239° Southwest 415 478 36,000  Level FlightAware ADS-B
Thu 10:40:07 PM 34.9240 -115.4580 239° Southwest 415 478 36,000  Level FlightAware ADS-B
Thu 10:40:39 PM 34.8930 -115.5240 240° Southwest 415 478 36,000  Level FlightAware ADS-B
Thu 10:41:15 PM 34.8570 -115.5970 239° Southwest 416 479 36,000  Level FlightAware ADS-B
Thu 10:41:51 PM 34.8220 -115.6690 239° Southwest 415 478 36,000  Level FlightAware ADS-B
Thu 10:42:39 PM 34.7750 -115.7660 239° Southwest 416 479 36,000  Level FlightAware ADS-B
Thu 10:43:15 PM 34.7400 -115.8380 239° Southwest 416 479 36,000  Level FlightAware ADS-B
Thu 10:43:47 PM 34.7080 -115.9030 239° Southwest 418 481 36,000  Level FlightAware ADS-B
Thu 10:44:21 PM 34.6740 -115.9720 239° Southwest 419 482 36,000  Level FlightAware ADS-B
Thu 10:44:59 PM 34.6370 -116.0480 239° Southwest 421 484 36,000  Level FlightAware ADS-B
Thu 10:45:35 PM 34.6010 -116.1220 239° Southwest 421 484 36,000 -333 Level FlightAware ADS-B
Thu 10:46:11 PM 34.5660 -116.1930 239° Southwest 412 474 35,600 -1,800 Descending FlightAware ADS-B
Thu 10:46:45 PM 34.5310 -116.2620 238° Southwest 414 476 33,900 -2,829 Descending FlightAware ADS-B
Thu 10:47:21 PM 34.4960 -116.3330 239° Southwest 413 475 32,300 -2,366 Descending FlightAware ADS-B
Thu 10:47:56 PM 34.4630 -116.4010 240° Southwest 405 466 31,100 -2,029 Descending FlightAware ADS-B
Thu 10:48:29 PM 34.4310 -116.4650 239° Southwest 397 457 30,000 -2,000 Descending FlightAware ADS-B
Thu 10:49:05 PM 34.3970 -116.5340 239° Southwest 392 451 28,800 -1,970 Descending FlightAware ADS-B
Thu 10:49:36 PM 34.3690 -116.5910 239° Southwest 388 447 27,800 -1,714 Descending FlightAware ADS-B
Thu 10:50:15 PM 34.3320 -116.6640 238° Southwest 395 455 26,800 -1,360 Descending FlightAware ADS-B
Thu 10:50:51 PM 34.2970 -116.7330 238° Southwest 404 465 26,100 -1,658 Descending FlightAware ADS-B
Thu 10:51:31 PM 34.2590 -116.8100 239° Southwest 397 457 24,700 -2,132 Descending FlightAware ADS-B
Thu 10:52:07 PM 34.2250 -116.8770 238° Southwest 390 449 23,400 -2,143 Descending FlightAware ADS-B
Thu 10:52:41 PM 34.1940 -116.9390 239° Southwest 392 451 22,200 -2,229 Descending FlightAware ADS-B
Thu 10:53:17 PM 34.1590 -117.0080 239° Southwest 393 452 20,800 -2,417 Descending FlightAware ADS-B
Thu 10:53:53 PM 34.1260 -117.0740 239° Southwest 394 453 19,300 -1,765 Descending FlightAware ADS-B
Thu 10:54:25 PM 34.0970 -117.1340 240° Southwest 379 436 18,800 -1,886 Descending FlightAware ADS-B
Thu 10:55:03 PM 34.0640 -117.2070 241° Southwest 389 448 17,100 -2,351 Descending FlightAware ADS-B
Thu 10:55:39 PM 34.0450 -117.2800 253° West 375 432 15,900 -2,029 Descending FlightAware ADS-B
Thu 10:56:11 PM 34.0400 -117.3450 265° West 364 419 14,800 -2,382 Descending FlightAware ADS-B
Thu 10:56:47 PM 34.0330 -117.4150 263° West 361 415 13,200 -2,500 Descending FlightAware ADS-B
Thu 10:57:35 PM 34.0320 -117.5100 269° West 343 395 11,300 -1,813 Descending FlightAware ADS-B
Thu 10:58:23 PM 34.0320 -117.5940 270° West 307 353 10,300 -907 Descending FlightAware ADS-B
Thu 10:59:01 PM 34.0260 -117.6570 263° West 280 322 10,000 -358 Descending FlightAware ADS-B
Thu 10:59:30 PM 34.0210 -117.7010 262° West 277 319 9,900 -625 Descending FlightAware ADS-B
Thu 10:59:49 PM 34.0190 -117.7320 266° West 274 315 9,500 -1,171 Descending FlightAware ADS-B
Thu 11:00:11 PM 34.0160 -117.7650 264° West 272 313 9,100 -1,143 Descending FlightAware ADS-B
Thu 11:00:31 PM 34.0130 -117.7950 263° West 269 310 8,700 -1,350 Descending FlightAware ADS-B
Thu 11:00:51 PM 34.0100 -117.8260 263° West 267 307 8,200 -1,350 Descending FlightAware ADS-B
Thu 11:01:11 PM 34.0070 -117.8540 263° West 264 304 7,800 -1,227 Descending FlightAware ADS-B
Thu 11:01:35 PM 34.0030 -117.8890 262° West 263 303 7,300 -1,227 Descending FlightAware ADS-B
Thu 11:01:55 PM 34.0010 -117.9190 265° West 260 299 6,900 -1,125 Descending FlightAware ADS-B
Thu 11:02:07 PM 33.9990 -117.9360 262° West 254 292 6,700 -811 Descending FlightAware ADS-B
Thu 11:02:32 PM 33.9960 -117.9690 264° West 247 284 6,400 -800 Descending FlightAware ADS-B
Thu 11:02:52 PM 33.9930 -117.9970 263° West 242 278 6,100 -882 Descending FlightAware ADS-B
Thu 11:03:06 PM 33.9910 -118.0150 262° West 239 275 5,900 -857 Descending FlightAware ADS-B
Thu 11:03:27 PM 33.9880 -118.0420 262° West 234 269 5,600 -811 Descending FlightAware ADS-B
Thu 11:03:43 PM 33.9860 -118.0640 264° West 229 264 5,400 -750 Descending FlightAware ADS-B
Thu 11:04:07 PM 33.9830 -118.0930 263° West 214 246 5,100 -1,091 Descending FlightAware ADS-B
Thu 11:04:27 PM 33.9810 -118.1160 264° West 211 243 4,600 -1,286 Descending FlightAware ADS-B
Thu 11:04:49 PM 33.9780 -118.1420 262° West 195 224 4,200 -857 Descending FlightAware ADS-B
Thu 11:05:09 PM 33.9760 -118.1630 263° West 185 213 4,000 -833 Descending FlightAware ADS-B
Thu 11:05:25 PM 33.9750 -118.1780 265° West 183 211 3,700 -1,167 Descending FlightAware ADS-B
Thu 11:05:45 PM 33.9730 -118.1980 263° West 185 213 3,300 -1,029 Descending FlightAware ADS-B
Thu 11:06:00 PM 33.9710 -118.2120 260° West 185 213 3,100 -875 Descending FlightAware ADS-B
Thu 11:06:33 PM 33.9680 -118.2460 264° West 186 214 2,600 -980 Descending FlightAware ADS-B
Thu 11:06:49 PM 33.9660 -118.2630 262° West 181 208 2,300 -955 Descending FlightAware ADS-B
Thu 11:07:17 PM 33.9630 -118.2920 263° West 176 203 1,900 -789 Descending FlightAware ADS-B
Thu 11:07:27 PM 33.9620 -118.3000 261° West 171 197 1,800 -857 Descending FlightAware ADS-B
Thu 11:07:52 PM 33.9600 -118.3230 264° West 155 178 1,400 -933 Descending FlightAware ADS-B
Thu 11:08:12 PM 33.9580 -118.3400 262° West 147 169 1,100 -714 Descending FlightAware ADS-B
Thu 11:08:34 PM 33.9570 -118.3560 266° West 156 180 900 -764 Descending FlightAware ADS-B
Thu 11:09:07 PM 33.9540 -118.3850 263° West 147 169 400 -792 Descending FlightAware ADS-B
Thu 11:09:27 PM 33.9520 -118.3970 259° West 149 171 200 -353 Descending FlightAware ADS-B
Thu 11:09:58 PM 33.9500 -118.4220 264° West 143 165 100 -194 Descending FlightAware ADS-B
Thu 11:17:00 PM 33.9425 -118.4081 259° West  Level Estimated
Thu 11:18:00 PM 33.9425 -118.4081 259° West  Level Estimated

Login

Don't have an account? Register now (free) for customized features, flight alerts, and more!